Time;durP1;ratioP1;P1;durP2;ratioP2;P2;SDS_P1;SDS_P2;PMS_P1;PMS_P2;Temp;Humidity;BMP_temperature;BMP_pressure;BME280_temperature;BME280_humidity;BME280_pressure;Samples;Min_cycle;Max_cycle;Signal;HPM_P1;HPM_P2
2022/05/21 00:01:33;;;;;;;19.55;4.93;;;;;;;12.63;100.00;99145.50;4914250;29;20050;-79
2022/05/21 00:03:59;;;;;;;18.35;4.82;;;;;;;12.95;100.00;99143.81;4913177;29;20032;-80
2022/05/21 00:06:25;;;;;;;16.13;5.43;;;;;;;12.82;100.00;99149.94;4914415;29;20044;-80
2022/05/21 00:08:51;;;;;;;21.80;5.45;;;;;;;12.66;100.00;99158.28;4914135;29;20036;-79
2022/05/21 00:11:19;;;;;;;23.05;5.30;;;;;;;12.76;100.00;99161.31;4914588;29;20076;-80
2022/05/21 00:13:47;;;;;;;15.98;5.05;;;;;;;12.97;100.00;99151.53;4911750;29;20036;-80
2022/05/21 00:16:13;;;;;;;20.27;4.72;;;;;;;13.08;100.00;99153.53;4912686;29;20048;-79
2022/05/21 00:18:39;;;;;;;14.85;4.50;;;;;;;13.09;100.00;99162.22;4914280;29;20095;-79
2022/05/21 00:21:07;;;;;;;17.38;5.75;;;;;;;12.95;100.00;99170.16;4914195;29;21205;-79
2022/05/21 00:23:34;;;;;;;13.32;3.95;;;;;;;13.09;100.00;99164.88;4914002;29;20115;-80
2022/05/21 00:26:08;;;;;;;22.38;4.65;;;;;;;13.06;100.00;99160.00;4914204;29;20036;-79
2022/05/21 00:28:36;;;;;;;20.85;5.63;;;;;;;12.77;100.00;99175.25;4914436;29;20036;-79
2022/05/21 00:31:02;;;;;;;22.77;5.20;;;;;;;12.85;100.00;99181.13;4914226;29;20064;-79
2022/05/21 00:33:28;;;;;;;13.68;3.95;;;;;;;12.84;100.00;99176.88;4914264;29;20025;-80
2022/05/21 00:35:54;;;;;;;18.80;4.50;;;;;;;12.82;100.00;99171.00;4914448;29;20043;-80
2022/05/21 00:38:20;;;;;;;18.45;4.88;;;;;;;12.68;100.00;99179.97;4912603;29;20036;-79
2022/05/21 00:40:50;;;;;;;18.83;5.25;;;;;;;12.48;100.00;99187.88;4914381;29;20543;-79
2022/05/21 00:43:44;;;;;;;19.65;4.95;;;;;;;12.83;100.00;99192.91;4914088;29;20079;-80
2022/05/21 00:46:16;;;;;;;17.10;4.75;;;;;;;12.82;100.00;99192.09;4913133;29;20036;-80
2022/05/21 00:48:45;;;;;;;21.27;4.80;;;;;;;12.54;100.00;99190.50;4913165;29;20468;-79
2022/05/21 00:51:16;;;;;;;18.08;5.25;;;;;;;12.39;100.00;99203.88;4913864;29;20067;-80
2022/05/21 00:53:45;;;;;;;18.02;4.97;;;;;;;12.75;100.00;99203.63;4913724;29;20032;-80
2022/05/21 00:56:12;;;;;;;23.83;4.80;;;;;;;12.63;100.00;99200.81;4914294;29;20028;-79
2022/05/21 01:01:28;;;;;;;16.50;4.75;;;;;;;12.81;100.00;99203.63;4913683;29;20056;-78
2022/05/21 01:03:53;;;;;;;29.80;7.45;;;;;;;12.58;100.00;99185.66;4915135;29;20129;-80
2022/05/21 01:06:19;;;;;;;18.90;4.93;;;;;;;12.48;100.00;99201.03;4914174;29;20033;-79
2022/05/21 01:08:45;;;;;;;20.35;5.43;;;;;;;12.66;100.00;99193.31;4912141;29;20036;-79
2022/05/21 01:11:16;;;;;;;17.70;4.25;;;;;;;12.35;100.00;99200.00;4913444;29;20048;-79
2022/05/21 01:13:45;;;;;;;15.35;5.00;;;;;;;12.41;100.00;99199.22;4911702;29;20024;-78
2022/05/21 01:16:13;;;;;;;17.83;4.93;;;;;;;12.51;100.00;99195.34;4913705;29;20043;-78
2022/05/21 01:18:39;;;;;;;10.13;5.10;;;;;;;12.44;100.00;99195.34;4914434;29;20066;-80
2022/05/21 01:21:05;;;;;;;15.55;4.95;;;;;;;12.48;100.00;99207.13;4913495;29;20059;-79
2022/05/21 01:23:31;;;;;;;19.92;4.35;;;;;;;12.57;100.00;99194.53;4915554;29;20046;-78
2022/05/21 01:25:59;;;;;;;16.48;5.05;;;;;;;12.66;100.00;99203.88;4916922;29;20047;-79
2022/05/21 01:28:31;;;;;;;12.70;3.85;;;;;;;12.69;100.00;99195.56;4916531;29;20076;-79
2022/05/21 01:30:59;;;;;;;15.98;4.25;;;;;;;12.56;100.00;99188.47;4917563;29;20036;-79
2022/05/21 01:33:31;;;;;;;12.73;4.53;;;;;;;12.62;100.00;99196.56;4916555;29;20060;-79
2022/05/21 01:35:58;;;;;;;11.57;5.03;;;;;;;12.40;100.00;99199.41;4916283;29;20059;-79
2022/05/21 01:38:24;;;;;;;18.58;4.88;;;;;;;12.68;100.00;99201.03;4916890;29;20398;-79
2022/05/21 01:40:50;;;;;;;14.77;4.75;;;;;;;12.73;100.00;99195.13;4916846;29;20868;-79
2022/05/21 01:46:03;;;;;;;16.65;4.53;;;;;;;12.96;100.00;99198.13;4914903;29;20122;-79
2022/05/21 01:48:31;;;;;;;18.83;4.15;;;;;;;12.62;100.00;99202.66;4916821;29;20115;-80
2022/05/21 01:50:56;;;;;;;17.38;4.40;;;;;;;12.79;100.00;99207.50;4916503;29;20412;-80
2022/05/21 01:53:25;;;;;;;17.23;4.30;;;;;;;12.94;100.00;99215.97;4915824;29;20044;-79
2022/05/21 01:55:51;;;;;;;15.10;4.57;;;;;;;12.99;100.00;99210.91;4916656;29;20035;-79
2022/05/21 01:58:18;;;;;;;18.05;4.20;;;;;;;13.02;100.00;99211.50;4916872;29;20036;-80
2022/05/21 02:00:44;;;;;;;13.50;3.70;;;;;;;12.94;100.00;99215.97;4916512;29;20390;-79
2022/05/21 02:03:11;;;;;;;18.83;4.53;;;;;;;12.98;100.00;99219.00;4923126;29;20052;-79
2022/05/21 02:05:38;;;;;;;14.20;4.43;;;;;;;12.81;100.00;99216.81;4915108;29;20056;-79
2022/05/21 02:08:05;;;;;;;16.27;4.65;;;;;;;12.78;100.00;99208.53;4913350;29;20428;-79
2022/05/21 02:10:32;;;;;;;19.10;4.78;;;;;;;12.52;100.00;99218.03;4915473;29;20115;-79
2022/05/21 02:12:58;;;;;;;18.58;4.80;;;;;;;12.47;100.00;99217.84;4915670;29;20391;-78
2022/05/21 02:15:24;;;;;;;13.52;4.82;;;;;;;12.77;100.00;99212.16;4916401;29;20119;-80
2022/05/21 02:17:50;;;;;;;15.27;4.15;;;;;;;12.51;100.00;99213.78;4915437;29;20075;-79
2022/05/21 02:20:16;;;;;;;19.60;4.72;;;;;;;12.51;100.00;99221.69;4914285;29;20044;-79
2022/05/21 02:22:42;;;;;;;16.20;5.18;;;;;;;12.55;100.00;99217.63;4915016;29;20112;-79
2022/05/21 02:25:11;;;;;;;12.90;4.80;;;;;;;12.79;100.00;99223.31;4916572;29;20095;-80
2022/05/21 02:27:36;;;;;;;12.95;4.10;;;;;;;12.51;100.00;99214.59;4916193;29;20443;-79
2022/05/21 02:30:03;;;;;;;20.92;5.20;;;;;;;12.46;100.00;99209.13;4916937;29;20031;-79
2022/05/21 02:32:28;;;;;;;15.35;4.60;;;;;;;12.75;100.00;99216.81;4915937;29;20493;-79
2022/05/21 02:34:54;;;;;;;12.02;3.97;;;;;;;12.65;100.00;99225.13;4905994;29;20032;-79
2022/05/21 02:40:05;;;;;;;13.07;4.03;;;;;;;12.80;100.00;99220.47;4916119;29;20364;-79
2022/05/21 02:42:43;;;;;;;13.32;4.80;;;;;;;12.73;100.00;99218.84;4915800;29;20040;-79
2022/05/21 02:45:28;;;;;;;15.73;4.65;;;;;;;12.78;100.00;99224.31;4916158;29;20118;-79
2022/05/21 02:47:54;;;;;;;16.10;5.05;;;;;;;12.70;100.00;99223.50;4913738;29;20043;-79
2022/05/21 02:50:24;;;;;;;19.77;4.80;;;;;;;12.55;100.00;99228.97;4915597;29;20036;-79
2022/05/21 02:52:49;;;;;;;17.15;5.45;;;;;;;12.57;100.00;99241.94;4914654;29;20043;-79
2022/05/21 02:55:17;;;;;;;15.88;4.68;;;;;;;12.36;100.00;99227.94;4915838;29;20500;-79
2022/05/21 02:57:43;;;;;;;10.70;4.28;;;;;;;12.40;100.00;99231.81;4914326;29;20095;-79
2022/05/21 03:00:13;;;;;;;17.17;4.82;;;;;;;12.37;100.00;99236.66;4915561;29;20502;-79
2022/05/21 03:02:39;;;;;;;18.23;5.15;;;;;;;12.31;100.00;99238.28;4914964;29;20050;-79
2022/05/21 03:05:06;;;;;;;17.58;4.82;;;;;;;12.18;100.00;99233.81;4914762;29;20491;-79
2022/05/21 03:07:45;;;;;;;12.50;3.78;;;;;;;12.32;100.00;99239.91;4915402;29;20093;-79
2022/05/21 03:10:23;;;;;;;10.55;4.13;;;;;;;12.04;100.00;99247.94;4914114;29;20514;-79
2022/05/21 03:12:51;;;;;;;18.95;4.32;;;;;;;12.11;100.00;99254.84;4915290;29;20028;-79
2022/05/21 03:15:19;;;;;;;10.75;4.40;;;;;;;12.28;100.00;99239.50;4915916;29;20462;-79
2022/05/21 03:17:46;;;;;;;11.75;3.30;;;;;;;12.40;100.00;99247.63;4915076;29;20079;-79
2022/05/21 03:20:14;;;;;;;15.23;3.78;;;;;;;12.26;100.00;99248.59;4914187;29;20028;-79
2022/05/21 03:22:41;;;;;;;11.68;3.22;;;;;;;12.19;100.00;99261.75;4913912;29;20032;-78
2022/05/21 03:25:07;;;;;;;13.02;3.80;;;;;;;12.21;100.00;99264.97;4915433;29;20463;-79
2022/05/21 03:27:34;;;;;;;13.77;3.85;;;;;;;12.20;100.00;99267.84;4913823;29;20087;-79
2022/05/21 03:30:01;;;;;;;11.27;4.45;;;;;;;12.09;100.00;99259.50;4915159;29;20028;-79
2022/05/21 03:32:27;;;;;;;10.48;3.65;;;;;;;11.97;100.00;99264.50;4914344;29;20028;-79
2022/05/21 03:34:52;;;;;;;12.43;3.50;;;;;;;11.97;100.00;99267.13;4915179;29;20031;-79
2022/05/21 03:37:18;;;;;;;12.65;4.00;;;;;;;12.14;100.00;99264.97;4913958;29;20114;-79
2022/05/21 03:39:43;;;;;;;15.93;3.67;;;;;;;12.08;100.00;99265.78;4909799;29;20091;-79
2022/05/21 03:42:09;;;;;;;12.80;3.40;;;;;;;11.99;100.00;99266.94;4915006;29;20055;-79
2022/05/21 03:44:38;;;;;;;13.23;3.50;;;;;;;11.97;100.00;99267.13;4914713;29;20059;-79
2022/05/21 03:47:04;;;;;;;13.50;3.30;;;;;;;11.89;100.00;99271.75;4914322;29;20032;-79
2022/05/21 03:49:30;;;;;;;15.10;3.63;;;;;;;11.68;100.00;99268.25;4914822;29;20035;-79
2022/05/21 03:51:55;;;;;;;16.52;3.42;;;;;;;11.77;100.00;99264.41;4914894;29;20099;-79
2022/05/21 03:54:21;;;;;;;15.00;4.05;;;;;;;11.82;100.00;99271.72;4914807;29;20467;-79
2022/05/21 03:56:47;;;;;;;10.35;3.42;;;;;;;11.78;100.00;99265.25;4914689;29;20065;-79
2022/05/21 03:59:13;;;;;;;16.67;4.07;;;;;;;11.46;100.00;99262.25;4914557;29;20390;-78
2022/05/21 04:01:41;;;;;;;19.65;4.35;;;;;;;11.64;100.00;99264.38;4913546;29;20048;-79
2022/05/21 04:04:07;;;;;;;15.75;3.72;;;;;;;11.54;100.00;99264.75;4915982;29;20028;-79
2022/05/21 04:06:33;;;;;;;15.05;4.03;;;;;;;11.65;100.00;99264.16;4935716;28;20047;-78
2022/05/21 04:08:59;;;;;;;15.07;4.30;;;;;;;11.58;100.00;99261.50;4914574;29;20036;-79
2022/05/21 04:11:24;;;;;;;12.23;3.80;;;;;;;11.29;100.00;99259.94;4914477;29;20070;-78
2022/05/21 04:13:50;;;;;;;10.80;3.92;;;;;;;11.48;100.00;99262.88;4914587;29;20024;-79
2022/05/21 04:16:16;;;;;;;11.40;3.50;;;;;;;11.66;100.00;99265.78;4914151;29;20372;-79
2022/05/21 04:18:41;;;;;;;14.98;4.03;;;;;;;11.39;100.00;99280.63;4914557;29;20031;-78
2022/05/21 04:21:07;;;;;;;14.75;4.22;;;;;;;11.42;100.00;99277.63;4914687;29;20024;-79
2022/05/21 04:23:33;;;;;;;21.23;4.03;;;;;;;11.28;100.00;99277.53;4914368;29;20043;-80
2022/05/21 04:25:59;;;;;;;13.50;3.58;;;;;;;11.38;100.00;99281.63;4914742;29;20036;-80
2022/05/21 04:28:24;;;;;;;12.80;3.60;;;;;;;11.28;100.00;99276.72;4914085;29;20036;-80
2022/05/21 04:30:50;;;;;;;11.98;4.00;;;;;;;11.39;100.00;99275.38;4913942;29;20047;-80
2022/05/21 04:33:16;;;;;;;11.73;4.35;;;;;;;11.39;100.00;99272.72;4913286;29;20087;-80
2022/05/21 04:38:26;;;;;;;12.23;4.43;;;;;;;11.18;100.00;99261.31;4914223;29;20044;-80
2022/05/21 04:40:52;;;;;;;12.02;4.22;;;;;;;11.27;100.00;99265.41;4911897;29;20040;-79
2022/05/21 04:43:17;;;;;;;12.68;4.03;;;;;;;11.20;100.00;99269.00;4913681;29;20024;-80
2022/05/21 04:45:43;;;;;;;13.50;4.13;;;;;;;11.31;100.00;99272.91;4911239;29;20043;-79
2022/05/21 04:48:09;;;;;;;12.13;3.83;;;;;;;11.43;100.00;99263.47;4913839;29;20110;-80
2022/05/21 04:50:38;;;;;;;20.70;5.05;;;;;;;11.47;100.00;99272.59;4912767;29;20047;-79
2022/05/21 04:53:04;;;;;;;10.55;3.50;;;;;;;11.89;100.00;99280.47;4914064;29;20025;-79
2022/05/21 04:55:30;;;;;;;12.70;3.80;;;;;;;12.14;100.00;99280.75;4912383;29;20036;-78
2022/05/21 04:57:56;;;;;;;23.05;4.53;;;;;;;11.97;100.00;99295.25;4916468;29;20039;-78
2022/05/21 05:00:21;;;;;;;9.40;3.40;;;;;;;12.26;100.00;99303.88;4915126;29;20455;-79
2022/05/21 05:02:47;;;;;;;12.15;3.78;;;;;;;12.51;100.00;99296.22;4915108;29;20039;-78
2022/05/21 05:05:14;;;;;;;8.48;3.28;;;;;;;12.29;100.00;99292.94;4915457;29;20047;-78
2022/05/21 05:07:40;;;;;;;12.77;4.30;;;;;;;12.81;100.00;99290.56;4916287;29;20091;-79
2022/05/21 05:10:07;;;;;;;12.48;3.03;;;;;;;13.04;100.00;99304.34;4918208;29;20031;-78
2022/05/21 05:12:33;;;;;;;11.90;3.22;;;;;;;13.17;100.00;99309.63;4917545;29;20032;-78
2022/05/21 05:15:00;;;;;;;9.27;3.50;;;;;;;12.62;100.00;99313.25;4917263;29;20063;-78
2022/05/21 05:17:26;;;;;;;10.82;3.63;;;;;;;12.62;100.00;99313.25;4915528;29;20048;-78
2022/05/21 05:19:54;;;;;;;11.73;2.97;;;;;;;12.85;100.00;99318.13;4916302;29;20028;-79
2022/05/21 05:22:21;;;;;;;10.95;3.17;;;;;;;12.88;100.00;99316.91;4917210;29;20043;-79
2022/05/21 05:24:49;;;;;;;12.32;2.75;;;;;;;13.11;100.00;99324.41;4916269;29;20500;-80
2022/05/21 05:27:15;;;;;;;11.00;2.80;;;;;;;12.88;100.00;99330.09;4917348;29;20490;-80
2022/05/21 05:29:41;;;;;;;10.60;3.22;;;;;;;12.74;100.00;99331.06;4915080;29;20102;-79
2022/05/21 05:32:07;;;;;;;16.92;3.28;;;;;;;13.11;100.00;99332.31;4916258;29;20047;-80
2022/05/21 05:34:34;;;;;;;8.07;3.33;;;;;;;13.20;100.00;99338.19;4917346;29;20040;-80
2022/05/21 05:37:01;;;;;;;9.75;3.00;;;;;;;13.14;100.00;99341.63;4917098;29;20031;-79
2022/05/21 05:39:28;;;;;;;11.75;3.10;;;;;;;13.20;100.00;99353.19;4916335;29;20432;-78
2022/05/21 05:41:54;;;;;;;12.20;3.20;;;;;;;13.31;100.00;99359.66;4916705;29;20032;-79
2022/05/21 05:44:20;;;;;;;16.83;3.47;;;;;;;13.09;100.00;99358.06;4916024;29;20471;-80
2022/05/21 05:46:46;;;;;;;17.92;4.00;;;;;;;13.19;100.00;99339.22;4916806;29;20028;-79
2022/05/21 05:49:12;;;;;;;12.20;2.80;;;;;;;13.33;100.00;99349.72;4915375;29;20035;-80
2022/05/21 05:51:38;;;;;;;8.55;3.00;;;;;;;13.50;100.00;99350.94;4916865;29;20043;-79
2022/05/21 05:54:03;;;;;;;15.38;4.15;;;;;;;12.77;100.00;99349.09;4916708;29;20036;-79
2022/05/21 05:56:29;;;;;;;9.30;3.45;;;;;;;13.30;100.00;99345.69;4916718;29;20032;-79
2022/05/21 06:01:39;;;;;;;14.05;3.08;;;;;;;13.21;100.00;99347.72;4912242;29;20044;-79
2022/05/21 06:04:05;;;;;;;8.45;2.78;;;;;;;13.26;100.00;99353.19;4919153;29;20040;-79
2022/05/21 06:06:31;;;;;;;10.45;3.05;;;;;;;13.37;100.00;99354.38;4915358;29;20087;-79
2022/05/21 06:08:57;;;;;;;11.23;3.13;;;;;;;12.93;100.00;99354.00;4916225;29;20107;-78
2022/05/21 06:11:23;;;;;;;12.43;3.33;;;;;;;13.00;100.00;99346.09;4916325;29;20061;-78
2022/05/21 06:13:49;;;;;;;15.57;3.13;;;;;;;13.06;100.00;99344.47;4915334;29;20032;-80
2022/05/21 06:16:15;;;;;;;12.43;3.30;;;;;;;12.96;100.00;99335.13;4915320;29;20039;-79
2022/05/21 06:18:42;;;;;;;10.45;2.80;;;;;;;12.61;100.00;99343.25;4916477;29;20499;-80
2022/05/21 06:21:09;;;;;;;13.63;3.08;;;;;;;12.54;100.00;99347.66;4912892;29;20420;-80
2022/05/21 06:23:35;;;;;;;18.15;3.40;;;;;;;12.28;100.00;99330.81;4915078;29;20542;-80
2022/05/21 06:26:01;;;;;;;9.52;3.05;;;;;;;12.78;100.00;99343.66;4915194;29;20044;-80
2022/05/21 06:28:28;;;;;;;10.57;3.08;;;;;;;12.98;100.00;99354.22;4914577;29;20095;-80
2022/05/21 06:30:54;;;;;;;10.70;2.50;;;;;;;13.01;100.00;99358.25;4915945;29;20055;-80
2022/05/21 06:33:26;;;;;;;11.80;2.97;;;;;;;13.11;100.00;99356.03;4915732;29;20045;-81
2022/05/21 06:36:05;;;;;;;11.95;2.83;;;;;;;13.34;100.00;99353.97;4915152;29;20032;-80
2022/05/21 06:38:31;;;;;;;13.35;3.25;;;;;;;12.97;100.00;99352.59;4930256;29;20040;-80
2022/05/21 06:40:56;;;;;;;14.80;3.35;;;;;;;13.19;100.00;99365.56;4914881;29;20070;-79
2022/05/21 06:43:23;;;;;;;10.93;2.72;;;;;;;13.07;100.00;99352.19;4915627;29;20035;-80
2022/05/21 06:45:48;;;;;;;10.38;2.78;;;;;;;13.23;100.00;99361.50;4911780;29;20039;-79
2022/05/21 06:48:14;;;;;;;8.60;2.50;;;;;;;13.57;100.00;99362.31;4915813;29;20024;-80
2022/05/21 06:50:40;;;;;;;13.77;3.33;;;;;;;13.23;100.00;99372.03;4916161;29;20032;-80
2022/05/21 06:53:06;;;;;;;8.85;2.60;;;;;;;13.45;100.00;99374.50;4915527;29;20024;-80
2022/05/21 06:55:31;;;;;;;15.57;3.05;;;;;;;13.66;100.00;99364.72;4912942;29;20098;-80
2022/05/21 06:57:57;;;;;;;11.30;2.63;;;;;;;13.80;100.00;99361.03;4914398;29;20039;-80
2022/05/21 07:00:23;;;;;;;12.75;2.80;;;;;;;13.95;100.00;99359.94;4906628;29;20059;-80
2022/05/21 07:02:50;;;;;;;17.00;3.03;;;;;;;13.62;100.00;99369.56;4914125;29;20052;-80
2022/05/21 07:08:02;;;;;;;11.25;2.58;;;;;;;14.54;100.00;99365.97;4914910;29;20099;-81
2022/05/21 07:10:29;;;;;;;11.23;4.07;;;;;;;14.84;100.00;99361.94;4914733;29;20393;-82
2022/05/21 07:12:56;;;;;;;9.55;2.97;;;;;;;15.24;100.00;99369.56;4915791;29;20028;-81
2022/05/21 07:15:22;;;;;;;7.18;2.42;;;;;;;15.39;100.00;99373.72;4918733;29;20486;-82
2022/05/21 07:17:48;;;;;;;8.45;2.75;;;;;;;15.08;100.00;99372.75;4915686;29;20038;-81
2022/05/21 07:20:18;;;;;;;10.60;2.50;;;;;;;15.28;100.00;99378.69;4912773;29;20036;-81
2022/05/21 07:22:47;;;;;;;13.55;2.90;;;;;;;15.71;100.00;99386.81;4914465;29;20028;-83
2022/05/21 07:25:16;;;;;;;13.30;3.63;;;;;;;15.46;100.00;99386.88;4916853;29;20032;-83
2022/05/21 07:27:42;;;;;;;11.38;2.47;;;;;;;15.81;100.00;99395.06;4914754;29;20051;-83
2022/05/21 07:30:09;;;;;;;5.43;2.13;;;;;;;16.15;100.00;99389.41;4914690;29;20064;-83
2022/05/21 07:32:36;;;;;;;6.43;2.22;;;;;;;16.33;100.00;99385.94;4914511;29;20028;-82
2022/05/21 07:35:11;;;;;;;10.98;3.30;;;;;;;15.68;100.00;99400.50;4913231;29;20051;-82
2022/05/21 07:37:37;;;;;;;9.60;2.58;;;;;;;15.21;100.00;99390.34;4914033;29;20024;-84
2022/05/21 07:40:04;;;;;;;9.05;2.90;;;;;;;14.97;100.00;99390.94;4912961;29;20477;-85
2022/05/21 07:42:30;;;;;;;11.70;2.53;;;;;;;14.57;100.00;99391.16;4913826;29;20035;-81
2022/05/21 07:44:59;;;;;;;14.57;3.42;;;;;;;14.63;100.00;99379.75;4913279;29;20398;-81
2022/05/21 07:47:25;;;;;;;11.23;3.03;;;;;;;15.29;100.00;99384.78;4914530;29;20503;-83
2022/05/21 07:49:54;;;;;;;8.30;2.88;;;;;;;15.57;100.00;99394.09;4937318;28;20044;-84
2022/05/21 07:52:20;;;;;;;7.88;2.97;;;;;;;15.25;100.00;99402.91;4936116;28;20402;-82
2022/05/21 07:54:46;;;;;;;10.35;3.17;;;;;;;15.74;100.00;99407.56;4914608;29;20125;-82
2022/05/21 07:57:11;;;;;;;7.57;2.63;;;;;;;15.96;100.00;99401.88;4896992;29;20427;-84
2022/05/21 07:59:38;;;;;;;7.55;2.65;;;;;;;16.15;100.00;99396.56;4915455;29;20032;-81
2022/05/21 08:02:05;;;;;;;12.00;2.63;;;;;;;15.64;100.00;99407.25;4913355;29;20036;-81
2022/05/21 08:04:31;;;;;;;14.60;2.95;;;;;;;14.78;100.00;99403.25;4915021;29;20477;-82
2022/05/21 08:06:56;;;;;;;11.23;3.10;;;;;;;14.96;100.00;99410.47;4908220;29;20100;-82
2022/05/21 08:09:22;;;;;;;10.95;3.10;;;;;;;14.82;100.00;99401.00;4915193;29;20036;-84
2022/05/21 08:11:49;;;;;;;15.52;3.72;;;;;;;14.30;100.00;99399.19;4916815;29;20113;-84
2022/05/21 08:14:15;;;;;;;13.93;3.05;;;;;;;14.49;100.00;99408.06;4915576;29;20028;-83
2022/05/21 08:16:41;;;;;;;13.60;2.92;;;;;;;14.23;100.00;99395.78;4916636;29;20056;-81
2022/05/21 08:19:06;;;;;;;16.83;3.10;;;;;;;14.26;100.00;99406.75;4914233;29;20040;-80
2022/05/21 08:21:32;;;;;;;9.93;3.08;;;;;;;14.31;100.00;99392.91;4914637;29;20435;-82
2022/05/21 08:26:57;;;;;;;14.95;3.50;;;;;;;14.51;100.00;99400.75;4913112;29;20104;-80
2022/05/21 08:29:32;;;;;;;9.85;3.33;;;;;;;14.78;100.00;99410.38;4912992;29;20036;-80
2022/05/21 08:32:00;;;;;;;13.82;2.90;;;;;;;14.74;100.00;99402.06;4912796;29;20107;-81
2022/05/21 08:34:27;;;;;;;9.27;2.85;;;;;;;14.64;100.00;99406.97;4917675;29;20040;-81
2022/05/21 08:36:53;;;;;;;10.10;2.78;;;;;;;14.92;100.00;99416.38;4925090;29;20130;-81
2022/05/21 08:39:20;;;;;;;15.43;3.42;;;;;;;14.82;100.00;99411.56;4914500;29;20068;-80
2022/05/21 08:41:57;;;;;;;8.75;2.60;;;;;;;15.34;100.00;99421.16;4916798;29;20130;-82
2022/05/21 08:44:44;;;;;;;10.13;2.65;;;;;;;14.75;100.00;99413.47;4916236;29;20036;-81
2022/05/21 08:47:26;;;;;;;16.13;3.97;;;;;;;14.85;100.00;99417.25;4912818;29;20047;-81
2022/05/21 08:50:01;;;;;;;10.63;3.13;;;;;;;14.99;100.00;99420.59;4914730;29;20220;-80
2022/05/21 08:52:59;;;;;;;13.63;3.10;;;;;;;15.07;100.00;99422.19;4916440;29;20430;-80
2022/05/21 08:55:43;;;;;;;13.95;3.15;;;;;;;15.45;100.00;99415.16;4917029;29;20115;-81
2022/05/21 08:58:17;;;;;;;9.52;2.70;;;;;;;15.98;100.00;99402.47;4914665;29;20121;-81
2022/05/21 09:00:45;;;;;;;9.48;3.17;;;;;;;16.04;100.00;99414.81;4916161;29;20032;-81
2022/05/21 09:03:15;;;;;;;14.35;3.08;;;;;;;15.37;100.00;99418.09;4935621;29;20406;-80
2022/05/21 09:05:45;;;;;;;8.13;2.72;;;;;;;16.37;100.00;99418.91;4912381;29;20063;-81
2022/05/21 09:08:30;;;;;;;10.32;2.63;;;;;;;16.29;100.00;99411.25;4909947;29;20034;-80
2022/05/21 09:11:01;;;;;;;10.70;3.05;;;;;;;15.93;100.00;99413.69;4942769;28;20036;-81
2022/05/21 09:13:44;;;;;;;9.48;2.75;;;;;;;15.70;100.00;99420.44;4917865;29;20051;-86
2022/05/21 09:19:00;;;;;;;9.00;2.60;;;;;;;15.91;100.00;99414.94;4915274;29;20036;-83
2022/05/21 09:21:27;;;;;;;10.82;2.63;;;;;;;15.71;100.00;99410.63;4916780;29;20044;-82
2022/05/21 09:23:58;;;;;;;11.13;2.63;;;;;;;15.91;100.00;99407.81;4916202;29;20047;-81
2022/05/21 09:26:30;;;;;;;10.55;2.75;;;;;;;15.76;100.00;99397.56;4913454;29;20047;-84
2022/05/21 09:29:16;;;;;;;11.88;2.92;;;;;;;16.26;100.00;99401.91;4916165;29;21330;-82
2022/05/21 09:31:43;;;;;;;7.32;2.40;;;;;;;15.72;100.00;99406.97;4916078;29;20024;-83
2022/05/21 09:34:16;;;;;;;7.53;2.60;;;;;;;15.82;100.00;99403.81;4915355;29;20123;-83
2022/05/21 09:36:42;;;;;;;8.63;2.42;;;;;;;15.46;100.00;99413.34;4917187;29;20036;-83
2022/05/21 09:39:07;;;;;;;10.82;2.50;;;;;;;15.13;100.00;99404.63;4916627;29;20036;-82
2022/05/21 09:41:36;;;;;;;9.52;3.10;;;;;;;15.06;100.00;99414.47;4939061;29;21882;-82
2022/05/21 09:47:06;;;;;;;9.30;2.58;;;;;;;15.77;100.00;99409.78;4917390;29;20466;-80
2022/05/21 09:49:33;;;;;;;6.65;2.13;;;;;;;15.74;100.00;99415.50;4916101;29;20499;-83
2022/05/21 09:52:09;;;;;;;7.72;2.63;;;;;;;15.04;100.00;99411.22;4915540;29;20028;-83
2022/05/21 09:54:43;;;;;;;6.82;2.38;;;;;;;15.45;100.00;99419.66;4914997;29;20414;-82
2022/05/21 09:57:28;;;;;;;5.78;2.40;;;;;;;15.91;100.00;99421.06;4917751;29;20470;-83
2022/05/21 10:00:23;;;;;;;8.13;2.47;;;;;;;15.99;100.00;99418.09;4915769;29;20036;-82
2022/05/21 10:03:00;;;;;;;10.85;2.90;;;;;;;15.90;100.00;99416.78;4917194;29;20044;-82
2022/05/21 10:05:35;;;;;;;6.82;2.50;;;;;;;16.55;99.08;99425.19;4923371;29;20049;-82
2022/05/21 10:11:55;;;;;;;8.05;3.15;;;;;;;17.01;97.80;99425.59;4916911;29;20055;-83
2022/05/21 10:14:30;;;;;;;8.43;2.70;;;;;;;16.87;98.47;99427.59;4904997;29;20048;-82
2022/05/21 10:17:17;;;;;;;5.65;2.47;;;;;;;17.41;97.16;99432.09;4915505;29;20032;-83
2022/05/21 10:20:04;;;;;;;7.28;2.75;;;;;;;17.85;94.67;99432.56;4914159;29;20115;-83
2022/05/21 10:23:08;;;;;;;11.77;3.38;;;;;;;18.45;93.92;99442.25;4917235;29;20048;-86
2022/05/21 10:26:26;;;;;;;11.77;3.58;;;;;;;18.16;93.23;99431.63;4918547;29;20135;-85
2022/05/21 10:29:13;;;;;;;9.55;2.97;;;;;;;18.47;95.04;99425.03;4896742;29;20398;-85
2022/05/21 10:32:05;;;;;;;8.65;3.13;;;;;;;19.57;92.73;99419.66;4918667;29;20055;-86
2022/05/21 10:34:49;;;;;;;8.00;2.92;;;;;;;19.63;90.92;99421.34;4919472;29;20043;-87
2022/05/21 10:37:14;;;;;;;;;;;;;;;20.16;87.55;99419.16;4919544;29;20039;-86
2022/05/21 10:40:11;;;;;;;9.00;3.60;;;;;;;19.77;87.94;99432.47;4950135;28;19914;-84
2022/05/21 10:42:55;;;;;;;11.57;3.58;;;;;;;19.58;89.56;99435.41;4919739;29;20056;-87
2022/05/21 10:45:32;;;;;;;8.65;3.72;;;;;;;20.47;88.12;99432.00;4950544;29;20040;-87
2022/05/21 10:48:16;;;;;;;7.90;3.42;;;;;;;20.68;88.09;99433.81;4950457;28;20379;-84
2022/05/21 10:51:05;;;;;;;6.53;3.35;;;;;;;20.46;88.19;99433.06;4950710;28;20040;-85
2022/05/21 10:53:49;;;;;;;5.90;3.08;;;;;;;20.40;86.36;99422.31;4919271;29;20054;-84
2022/05/21 10:56:14;;;;;;;7.63;3.40;;;;;;;19.79;84.80;99425.03;4918952;29;20427;-90
2022/05/21 10:59:08;;;;;;;8.70;3.30;;;;;;;20.19;84.68;99428.47;4939893;29;20036;-89
2022/05/21 11:02:03;;;;;;;6.65;3.28;;;;;;;20.01;85.74;99427.72;4915571;29;20055;-88
2022/05/21 11:04:45;;;;;;;8.35;3.47;;;;;;;19.91;84.69;99430.25;4917018;29;20028;-87
2022/05/21 11:07:31;;;;;;;7.78;3.65;;;;;;;20.49;86.62;99433.34;4939115;28;20032;-89
2022/05/21 11:10:15;;;;;;;6.50;3.42;;;;;;;20.67;84.38;99423.41;4925100;29;20032;-89
2022/05/21 11:13:10;;;;;;;8.98;3.60;;;;;;;20.61;84.85;99435.88;4913569;29;20467;-87
2022/05/21 11:15:46;;;;;;;8.07;3.50;;;;;;;20.55;86.97;99432.38;4912449;29;20039;-87
2022/05/21 11:18:16;;;;;;;7.75;3.42;;;;;;;20.54;84.50;99430.75;4913927;29;20158;-87
2022/05/21 11:21:09;;;;;;;9.63;3.40;;;;;;;19.20;83.88;99440.41;4914601;29;20547;-87
2022/05/21 11:23:45;;;;;;;10.10;3.88;;;;;;;18.95;85.57;99438.09;4916093;29;20428;-86
2022/05/21 11:26:26;;;;;;;8.63;3.65;;;;;;;18.56;87.94;99425.47;4912471;29;20116;-87
2022/05/21 11:28:59;;;;;;;7.03;3.40;;;;;;;18.80;88.18;99436.81;4913142;29;20066;-86
2022/05/21 11:37:24;;;;;;;11.18;3.88;;;;;;;19.23;88.98;99418.66;4912515;29;20530;-88
2022/05/21 11:39:55;;;;;;;11.60;3.45;;;;;;;19.87;88.95;99424.59;4912976;29;20498;-86
2022/05/21 11:42:34;;;;;;;10.43;3.80;;;;;;;20.21;87.35;99426.38;4913550;29;20028;-83
2022/05/21 11:45:08;;;;;;;9.00;3.72;;;;;;;20.75;87.47;99424.81;4911431;29;20423;-85
2022/05/21 11:47:39;;;;;;;11.43;3.78;;;;;;;20.60;85.05;99423.59;4912098;29;20087;-87
2022/05/21 11:50:14;;;;;;;7.43;3.65;;;;;;;20.23;84.73;99414.41;4911709;29;20102;-87
2022/05/21 11:52:39;;;;;;;7.22;3.65;;;;;;;20.23;83.08;99409.09;4913107;29;20111;-87
2022/05/21 11:55:11;;;;;;;7.55;3.50;;;;;;;19.81;83.76;99413.06;4924228;29;20127;-87
2022/05/21 11:57:45;;;;;;;10.70;3.83;;;;;;;20.61;81.16;99401.19;4912931;29;20032;-87
2022/05/21 12:00:16;;;;;;;8.95;3.42;;;;;;;21.10;81.79;99396.84;4913100;29;20035;-88
2022/05/21 12:02:54;;;;;;;8.10;4.10;;;;;;;20.45;81.73;99416.25;4918712;29;20048;-86
2022/05/21 12:05:33;;;;;;;14.20;4.05;;;;;;;20.17;81.37;99403.94;4915740;29;20032;-89
2022/05/21 12:08:20;;;;;;;11.68;4.30;;;;;;;20.34;83.17;99402.00;4914385;29;20494;-89
2022/05/21 12:11:02;;;;;;;10.05;3.95;;;;;;;20.71;82.79;99391.69;4913957;29;20028;-86